Terminal Aerodrome Forecast
Issued by NWS

Home | Current Version | Previous Version | Text Only | Print | Product List | Glossary On
Versions: 1 2 3 4 5 6 7 8 9 10 11 12 13 14 15 16 17 18
000
FTUS43 KGRR 041700
TAFLAN
TAF
KLAN 041740Z 0418/0518 30009KT P6SM SCT050 BKN150
     FM050000 31006KT P6SM BKN200
     FM050600 09006KT P6SM OVC120
     FM051100 10008KT 5SM BR OVC050
     FM051400 09010KT 4SM BR OVC020=

USA.gov is the U.S. government's official web portal to all federal, state and local government web resources and services.